createdAt,value
2022-10-28T00:02:48.249Z,15.90
2022-10-28T00:08:16.299Z,15.98
2022-10-28T00:13:40.177Z,15.99
2022-10-28T00:19:07.232Z,16.01
2022-10-28T00:24:35.719Z,15.99
2022-10-28T00:30:06.191Z,15.93
2022-10-28T00:35:33.205Z,15.90
2022-10-28T00:41:00.206Z,15.84
2022-10-28T00:46:30.212Z,15.74
2022-10-28T00:51:56.561Z,15.62
2022-10-28T00:57:26.705Z,15.62
2022-10-28T01:02:56.277Z,15.52
2022-10-28T01:08:21.235Z,15.51
2022-10-28T01:13:58.290Z,15.46
2022-10-28T01:19:54.231Z,15.48
2022-10-28T01:26:00.239Z,15.43
2022-10-28T01:31:44.243Z,15.36
2022-10-28T01:37:15.238Z,15.26
2022-10-28T01:42:48.231Z,15.27
2022-10-28T01:48:17.241Z,15.25
2022-10-28T01:53:48.422Z,15.27
2022-10-28T01:59:15.251Z,15.25
2022-10-28T02:04:43.268Z,15.22
2022-10-28T02:10:26.278Z,15.21
2022-10-28T02:15:59.270Z,15.26
2022-10-28T02:21:34.313Z,15.24
2022-10-28T02:27:05.291Z,15.23
2022-10-28T02:32:35.270Z,15.18
2022-10-28T02:38:04.271Z,15.12
2022-10-28T02:43:31.312Z,15.09
2022-10-28T02:48:59.272Z,15.07
2022-10-28T02:54:30.319Z,15.00
2022-10-28T03:00:04.288Z,14.96
2022-10-28T03:05:29.466Z,14.89
2022-10-28T03:10:58.302Z,14.86
2022-10-28T03:16:22.308Z,14.84
2022-10-28T03:21:47.311Z,14.79
2022-10-28T03:27:22.568Z,14.77
2022-10-28T03:32:50.655Z,14.79
2022-10-28T03:38:15.309Z,14.74
2022-10-28T03:43:48.324Z,14.70
2022-10-28T03:49:27.341Z,14.64
2022-10-28T04:00:26.630Z,14.58
2022-10-28T04:05:50.347Z,14.56
2022-10-28T04:11:15.339Z,14.53
2022-10-28T04:16:42.335Z,14.45
2022-10-28T04:27:27.363Z,14.54
2022-10-28T04:32:55.361Z,14.55
2022-10-28T04:44:09.409Z,14.57
2022-10-28T04:49:43.382Z,14.62
2022-10-28T05:00:29.351Z,14.60
2022-10-28T05:05:57.376Z,14.57
2022-10-28T05:11:21.372Z,14.51
2022-10-28T05:16:46.428Z,14.46
2022-10-28T05:22:15.432Z,14.39
2022-10-28T05:27:40.369Z,14.30
2022-10-28T05:33:04.432Z,14.29
2022-10-28T05:38:32.389Z,14.31
2022-10-28T05:43:57.445Z,14.33
2022-10-28T05:49:27.497Z,14.31
2022-10-28T05:54:54.422Z,14.39
2022-10-28T06:00:21.398Z,14.38
2022-10-28T06:05:47.397Z,14.40
2022-10-28T06:11:14.037Z,14.42
2022-10-28T06:16:42.357Z,14.40
2022-10-28T06:22:06.917Z,14.40
2022-10-28T06:27:40.944Z,14.45
2022-10-28T06:33:12.005Z,14.53
2022-10-28T06:38:38.961Z,14.58
2022-10-28T06:44:06.903Z,14.61
2022-10-28T06:49:32.441Z,14.69
2022-10-28T06:54:57.445Z,14.75
2022-10-28T07:00:25.596Z,14.86
2022-10-28T07:05:50.525Z,14.99
2022-10-28T07:11:16.560Z,15.12
2022-10-28T07:16:44.507Z,15.23
2022-10-28T07:22:30.454Z,15.33
2022-10-28T07:27:55.878Z,15.43
2022-10-28T07:33:23.507Z,15.54
2022-10-28T07:38:49.529Z,15.70
2022-10-28T07:44:14.507Z,15.81
2022-10-28T07:49:42.645Z,15.92
2022-10-28T07:55:08.566Z,16.02
2022-10-28T08:00:33.577Z,16.07
2022-10-28T08:06:00.512Z,16.16
2022-10-28T08:11:29.499Z,16.22
2022-10-28T08:16:53.512Z,16.30
2022-10-28T08:22:21.713Z,16.45
2022-10-28T08:27:48.483Z,16.62
2022-10-28T08:33:13.513Z,16.72
2022-10-28T08:38:45.086Z,16.84
2022-10-28T08:44:33.511Z,17.01
2022-10-28T08:50:00.516Z,17.17
2022-10-28T08:55:32.575Z,17.31
2022-10-28T09:01:03.564Z,17.44
2022-10-28T09:06:28.503Z,17.60
2022-10-28T09:12:12.503Z,17.78
2022-10-28T09:17:49.520Z,17.92
2022-10-28T09:23:15.515Z,17.99
2022-10-28T09:29:01.595Z,18.06
2022-10-28T09:34:39.517Z,18.16
2022-10-28T09:40:09.540Z,18.29
2022-10-28T09:45:43.731Z,18.37
2022-10-28T09:51:10.578Z,18.39
2022-10-28T09:56:35.133Z,18.50
2022-10-28T10:02:02.732Z,18.61
2022-10-28T10:07:46.525Z,18.68
2022-10-28T10:13:14.883Z,18.70
2022-10-28T10:18:48.583Z,18.79
2022-10-28T10:24:38.589Z,18.89
2022-10-28T10:30:04.594Z,19.02
2022-10-28T10:35:35.587Z,19.14
2022-10-28T10:41:04.709Z,19.38
2022-10-28T10:46:29.554Z,19.56
2022-10-28T10:52:06.826Z,19.84
2022-10-28T10:57:32.565Z,19.98
2022-10-28T11:03:01.595Z,20.16
2022-10-28T11:08:40.812Z,20.30
2022-10-28T11:14:19.623Z,20.56
2022-10-28T11:19:46.940Z,20.88
2022-10-28T11:25:38.577Z,21.16
2022-10-28T11:31:13.619Z,21.57
2022-10-28T11:36:43.626Z,21.81
2022-10-28T11:42:25.645Z,21.86
2022-10-28T11:48:17.776Z,21.80
2022-10-28T11:54:11.009Z,21.72
2022-10-28T12:00:00.633Z,21.66
2022-10-28T12:05:36.876Z,21.58
2022-10-28T12:11:16.640Z,21.50
2022-10-28T12:16:50.613Z,21.37
2022-10-28T12:22:24.806Z,21.34
2022-10-28T12:27:54.638Z,21.31
2022-10-28T12:33:28.033Z,21.26
2022-10-28T12:38:58.801Z,21.29
2022-10-28T12:44:28.635Z,21.32
2022-10-28T12:50:00.658Z,21.39
2022-10-28T12:55:37.717Z,21.73
2022-10-28T13:01:07.821Z,22.06
2022-10-28T13:07:14.664Z,22.19
2022-10-28T13:13:21.730Z,22.06
2022-10-28T13:19:29.677Z,22.02
2022-10-28T13:25:07.682Z,21.92
2022-10-28T13:30:34.721Z,21.93
2022-10-28T13:36:00.988Z,21.77
2022-10-28T13:41:50.190Z,21.65
2022-10-28T13:47:36.695Z,21.57
2022-10-28T13:53:02.752Z,21.54
2022-10-28T13:58:34.731Z,21.50
2022-10-28T14:04:07.730Z,21.68
2022-10-28T14:09:41.048Z,21.82
2022-10-28T14:15:13.799Z,21.92
2022-10-28T14:20:42.736Z,22.07
2022-10-28T14:26:20.396Z,22.13
2022-10-28T14:31:56.737Z,22.12
2022-10-28T14:37:52.977Z,22.16
2022-10-28T14:43:35.773Z,22.14
2022-10-28T14:49:11.613Z,22.09
2022-10-28T14:54:44.799Z,21.93
2022-10-28T15:00:10.722Z,21.82
2022-10-28T15:05:41.833Z,21.67
2022-10-28T15:11:07.240Z,21.54
2022-10-28T15:16:34.772Z,21.46
2022-10-28T15:22:16.057Z,21.32
2022-10-28T15:27:42.790Z,21.18
2022-10-28T15:33:07.779Z,21.07
2022-10-28T15:38:53.790Z,20.89
2022-10-28T15:44:20.759Z,20.74
2022-10-28T15:49:47.924Z,20.60
2022-10-28T15:55:15.777Z,20.45
2022-10-28T16:00:43.140Z,20.29
2022-10-28T16:06:07.815Z,20.19
2022-10-28T16:11:35.808Z,20.05
2022-10-28T16:17:01.881Z,19.96
2022-10-28T16:22:27.977Z,19.89
2022-10-28T16:27:56.032Z,19.82
2022-10-28T16:33:20.884Z,19.73
2022-10-28T16:38:45.780Z,19.66
2022-10-28T16:44:13.856Z,19.65
2022-10-28T16:49:37.824Z,19.55
2022-10-28T16:55:02.803Z,19.50
2022-10-28T17:00:32.883Z,19.45
2022-10-28T17:05:57.829Z,19.37
2022-10-28T17:11:23.904Z,19.26
2022-10-28T17:16:51.817Z,19.19
2022-10-28T17:22:16.854Z,19.21
2022-10-28T17:27:41.853Z,19.15
2022-10-28T17:33:09.870Z,19.06
2022-10-28T17:38:34.850Z,19.00
2022-10-28T17:43:58.873Z,19.01
2022-10-28T17:49:27.303Z,18.99
2022-10-28T17:54:51.853Z,18.92
2022-10-28T18:00:18.861Z,18.86
2022-10-28T18:05:45.883Z,18.78
2022-10-28T18:11:10.900Z,18.65
2022-10-28T18:16:36.911Z,18.43
2022-10-28T18:22:04.862Z,18.35
2022-10-28T18:27:28.875Z,18.23
2022-10-28T18:32:54.051Z,18.13
2022-10-28T18:38:20.920Z,17.99
2022-10-28T18:43:45.896Z,17.94
2022-10-28T18:49:11.877Z,17.85
2022-10-28T18:54:39.960Z,17.78
2022-10-28T19:00:19.788Z,17.78
2022-10-28T19:05:50.904Z,17.80
2022-10-28T19:11:20.969Z,17.83
2022-10-28T19:16:46.905Z,17.76
2022-10-28T19:22:11.949Z,17.72
2022-10-28T19:27:41.594Z,17.69
2022-10-28T19:33:05.932Z,17.61
2022-10-28T19:38:31.071Z,17.53
2022-10-28T19:44:02.963Z,17.52
2022-10-28T19:49:32.442Z,17.52
2022-10-28T19:55:00.974Z,17.55
2022-10-28T20:00:29.198Z,17.50
2022-10-28T20:05:59.930Z,17.48
2022-10-28T20:11:27.218Z,17.43
2022-10-28T20:16:55.947Z,17.40
2022-10-28T20:22:22.962Z,17.37
2022-10-28T20:27:47.002Z,17.30
2022-10-28T20:33:15.036Z,17.34
2022-10-28T20:38:40.298Z,17.40
2022-10-28T20:44:04.968Z,17.35
2022-10-28T20:49:32.052Z,17.30
2022-10-28T20:54:57.252Z,17.27
2022-10-28T21:00:22.972Z,17.27
2022-10-28T21:05:51.111Z,17.32
2022-10-28T21:11:16.983Z,17.29
2022-10-28T21:16:41.993Z,17.23
2022-10-28T21:22:08.985Z,17.20
2022-10-28T21:27:34.030Z,17.17
2022-10-28T21:32:58.310Z,17.14
2022-10-28T21:38:25.983Z,17.14
2022-10-28T21:43:54.020Z,17.09
2022-10-28T21:49:18.984Z,17.05
2022-10-28T21:54:47.149Z,17.06
2022-10-28T22:00:12.035Z,17.03
2022-10-28T22:05:36.054Z,17.02
2022-10-28T22:11:11.029Z,16.97
2022-10-28T22:16:35.011Z,16.94
2022-10-28T22:22:00.003Z,16.89
2022-10-28T22:27:27.059Z,16.86
2022-10-28T22:32:52.192Z,16.77
2022-10-28T22:38:16.056Z,16.72
2022-10-28T22:43:50.043Z,16.67
2022-10-28T22:49:16.171Z,16.61
2022-10-28T22:54:40.231Z,16.54
2022-10-28T23:00:08.117Z,16.47
2022-10-28T23:05:32.083Z,16.43
2022-10-28T23:10:57.105Z,16.40
2022-10-28T23:16:27.155Z,16.40
2022-10-28T23:21:52.067Z,16.40
2022-10-28T23:27:17.073Z,16.37
2022-10-28T23:32:45.075Z,16.37
2022-10-28T23:38:09.067Z,16.35
2022-10-28T23:43:34.092Z,16.38
2022-10-28T23:49:01.097Z,16.39
2022-10-28T23:54:26.101Z,16.40
2022-10-28T23:59:50.112Z,16.41
